Emerald Coast — WDC9127 — position and weather

sailwx.info

Track history (hours):
 
Tides and Currents Weather Stations Pressure Air Temp Water Temp Dewpoint Dewpoint Depression Visibility Wind Speed Wind Dir Waves Ship Positions

Emerald Coast

Owner: Dann Marine Towing, LC, Chesapeake City, MD. More information available from US FCC via Universal Licensing System and Coast Guard Vessel Documentation Center.

Last reported at 2017-Jan-18 21:33 UTC. Time now 2017-Jan-18 22:13 UTC.
Position N 40°40' W 074°05'.

Length 28 m; draft 3 m.

Type: Towing. MMSI: 367097920.

Date/timePositionNaut miles runAvg speedWind from/ knotsBaromVisibWave heightAir tempDewpointWater temp
2017-Jan-18 21:33N 40°40' W 074°05'0 0.0
2017-Jan-18 20:33N 40°40' W 074°05'4 3.7
2017-Jan-18 19:34N 40°40' W 074°00'1 1.4
2017-Jan-18 18:34N 40°40' W 074°02'1 1.3
2017-Jan-18 17:33N 40°40' W 074°00'0 0.3
2017-Jan-18 16:33N 40°40' W 074°00'0 0.0
2017-Jan-18 15:34N 40°40' W 074°00'3 3.2
2017-Jan-18 14:33N 40°40' W 074°05'0 0.1
2017-Jan-18 13:33N 40°40' W 074°05'0 0.0
2017-Jan-18 12:33N 40°40' W 074°05'0 0.0
2017-Jan-18 11:33N 40°40' W 074°05'0 0.5
2017-Jan-18 10:33N 40°40' W 074°04'0 0.0
2017-Jan-18 09:33N 40°40' W 074°04'0 0.0
2017-Jan-18 08:34N 40°40' W 074°04'0 0.0
2017-Jan-18 07:34N 40°40' W 074°04'0 0.0
2017-Jan-18 06:34N 40°40' W 074°04'0 0.0
2017-Jan-18 05:33N 40°40' W 074°04'2 2.4
2017-Jan-18 04:33N 40°40' W 074°01'1 0.7
2017-Jan-18 03:33N 40°40' W 074°00'0 0.0
2017-Jan-18 02:33N 40°40' W 074°00'0 0.0
2017-Jan-18 01:34N 40°40' W 074°00'0 0.0
2017-Jan-18 00:33N 40°40' W 074°00'4 4.1
2017-Jan-17 23:33N 40°39' W 074°05'1 0.9
2017-Jan-17 22:33N 40°39' W 074°07'3 2.5
2017-Jan-17 21:33N 40°41' W 074°09'6 5.6
2017-Jan-17 20:33N 40°39' W 074°02'1 1.4
2017-Jan-17 19:33N 40°40' W 074°00'0 0.0
2017-Jan-17 18:33N 40°40' W 074°00'3 2.6
2017-Jan-17 17:33N 40°39' W 074°03'2 1.8
2017-Jan-17 16:33N 40°39' W 074°06'2 1.9
2017-Jan-17 15:34N 40°38' W 074°04'0 0.1
2017-Jan-17 14:33N 40°38' W 074°04'1 0.5
2017-Jan-17 13:33N 40°37' W 074°03'0 0.2
2017-Jan-17 12:33N 40°37' W 074°03'0 0.0
2017-Jan-17 11:33N 40°37' W 074°03'0 0.0
2017-Jan-17 10:33N 40°37' W 074°03'0 0.0
2017-Jan-17 09:33N 40°37' W 074°03'0 0.0
2017-Jan-17 08:33N 40°37' W 074°03'0 0.0
2017-Jan-17 07:33N 40°37' W 074°03'0 0.3
2017-Jan-17 06:33N 40°37' W 074°03'0 0.1
2017-Jan-17 05:33N 40°37' W 074°03'2 2.2
2017-Jan-17 04:34N 40°39' W 074°05'4 4.0
2017-Jan-17 03:34N 40°40' W 074°00'0 0.1
2017-Jan-17 02:33N 40°40' W 074°00'2 1.9
2017-Jan-17 01:33N 40°40' W 074°03'5 4.7
2017-Jan-17 00:33N 40°38' W 074°09'2 1.7
2017-Jan-16 23:33N 40°40' W 074°08'0 0.0
2017-Jan-16 22:33N 40°40' W 074°08'0 0.0
2017-Jan-16 21:33N 40°40' W 074°08'0 0.0
2017-Jan-16 20:33N 40°40' W 074°08'0 0.0
2017-Jan-16 19:33N 40°40' W 074°08'0 0.3
2017-Jan-16 18:34N 40°40' W 074°09'2 2.2
2017-Jan-16 17:33N 40°39' W 074°06'0 0.2
2017-Jan-16 16:33N 40°39' W 074°06'0 0.0
2017-Jan-16 15:33N 40°39' W 074°06'0 0.0
2017-Jan-16 14:33N 40°39' W 074°06'0 0.0
2017-Jan-16 13:33N 40°39' W 074°06'0 0.0
2017-Jan-16 12:33N 40°39' W 074°06'0 0.0
2017-Jan-16 11:33N 40°39' W 074°06'0 0.0
2017-Jan-16 10:33N 40°39' W 074°06'0 0.0
2017-Jan-16 09:33N 40°39' W 074°06'0 0.0
2017-Jan-16 08:33N 40°39' W 074°06'0 0.0
2017-Jan-16 07:33N 40°39' W 074°06'0 0.0
2017-Jan-16 06:33N 40°39' W 074°06'1 1.1
2017-Jan-16 05:33N 40°39' W 074°05'3 3.2
2017-Jan-16 04:33N 40°41' W 074°09'1 0.8
2017-Jan-16 03:32N 40°41' W 074°09'0 0.0
2017-Jan-16 02:33N 40°41' W 074°09'0 0.3
2017-Jan-16 01:33N 40°41' W 074°09'0 0.0
2017-Jan-16 00:33N 40°41' W 074°09'0 0.0
2017-Jan-15 23:33N 40°41' W 074°09'0 0.0
2017-Jan-15 22:33N 40°41' W 074°09'0 0.0
2017-Jan-15 21:33N 40°41' W 074°09'0 0.0
2017-Jan-15 20:33N 40°41' W 074°09'0 0.0
2017-Jan-15 19:33N 40°41' W 074°09'0 0.0
2017-Jan-15 18:34N 40°41' W 074°09'0 0.0
2017-Jan-15 17:33N 40°41' W 074°09'0 0.0
2017-Jan-15 16:33N 40°41' W 074°09'0 0.0
2017-Jan-15 15:33N 40°41' W 074°09'0 0.0
2017-Jan-15 14:33N 40°41' W 074°09'0 0.3
2017-Jan-15 13:34N 40°41' W 074°10'0 0.0
2017-Jan-15 12:33N 40°41' W 074°10'0 0.0
2017-Jan-15 11:33N 40°41' W 074°10'0 0.0
2017-Jan-15 10:33N 40°41' W 074°10'0 0.0
2017-Jan-15 09:33N 40°41' W 074°10'0 0.0
2017-Jan-15 08:33N 40°41' W 074°10'0 0.0
2017-Jan-15 07:33N 40°41' W 074°10'0 0.0
2017-Jan-15 06:33N 40°41' W 074°10'0 0.0
2017-Jan-15 05:33N 40°41' W 074°10'0 0.0
2017-Jan-15 04:33N 40°41' W 074°10'0 0.0
2017-Jan-15 03:33N 40°41' W 074°10'0 0.0
2017-Jan-15 02:33N 40°41' W 074°10'0 0.0
2017-Jan-15 01:34N 40°41' W 074°10'0 0.0
2017-Jan-15 00:33N 40°41' W 074°10'1 0.8
2017-Jan-14 23:33N 40°41' W 074°09'3 2.8
2017-Jan-14 22:33N 40°39' W 074°06'5 4.6
2017-Jan-14 21:33N 40°40' W 074°00'0 0.0
2017-Jan-14 20:33N 40°40' W 074°00'0 0.0
2017-Jan-14 19:33N 40°40' W 074°00'0 0.2
2017-Jan-14 18:33N 40°40' W 074°00'3 2.9
2017-Jan-14 17:33N 40°40' W 074°04'0 0.0
2017-Jan-14 16:33N 40°40' W 074°04'0 0.0
2017-Jan-14 15:33N 40°40' W 074°04'0 0.0
2017-Jan-14 14:33N 40°40' W 074°04'0 0.0
2017-Jan-14 13:33N 40°40' W 074°04'0 0.0
2017-Jan-14 12:33N 40°40' W 074°04'0 0.1
2017-Jan-14 11:33N 40°40' W 074°04'0 0.0
2017-Jan-14 10:33N 40°40' W 074°04'0 0.0
2017-Jan-14 09:33N 40°40' W 074°04'0 0.0
2017-Jan-14 08:33N 40°40' W 074°04'3 2.8
2017-Jan-14 07:33N 40°37' W 074°04'2 1.6
2017-Jan-14 06:33N 40°39' W 074°02'2 1.9
2017-Jan-14 05:33N 40°40' W 074°00'0 0.2
2017-Jan-14 04:33N 40°40' W 074°01'0 0.3
2017-Jan-14 03:33N 40°40' W 074°00'4 1.0
2017-Jan-13 23:33N 40°40' W 074°05'0 0.0
2017-Jan-13 22:33N 40°40' W 074°05'0 0.0
2017-Jan-13 21:33N 40°40' W 074°05'1 1.2
2017-Jan-13 20:33N 40°39' W 074°05'1 1.2
2017-Jan-13 19:33N 40°40' W 074°04'1 0.6
2017-Jan-13 18:33N 40°40' W 074°05'0 0.0
2017-Jan-13 17:33N 40°40' W 074°05'0 0.0
2017-Jan-13 16:33N 40°40' W 074°05'0 0.0
2017-Jan-13 15:33N 40°40' W 074°05'0 0.0
2017-Jan-13 14:33N 40°40' W 074°05'4 3.6
2017-Jan-13 13:33N 40°40' W 074°00'0 0.0
2017-Jan-13 12:33N 40°40' W 074°00'0 0.0
2017-Jan-13 11:33N 40°40' W 074°00'3 3.1
2017-Jan-13 10:33N 40°39' W 074°04'1 0.9
2017-Jan-13 09:33N 40°40' W 074°03'3 3.1
2017-Jan-13 08:33N 40°41' W 074°00'4 3.6
2017-Jan-13 07:33N 40°40' W 074°05'0 0.4
2017-Jan-13 06:33N 40°40' W 074°05'0 0.0
2017-Jan-13 05:33N 40°40' W 074°05'0 0.0
2017-Jan-13 04:33N 40°40' W 074°05'0 0.0
2017-Jan-13 03:33N 40°40' W 074°05'0 0.0
2017-Jan-13 02:33N 40°40' W 074°05'0 0.0
2017-Jan-13 01:33N 40°40' W 074°05'0 0.0
2017-Jan-13 00:33N 40°40' W 074°05'0 0.0
2017-Jan-12 23:33N 40°40' W 074°05'0 0.0
2017-Jan-12 22:33N 40°40' W 074°05'1 1.2
2017-Jan-12 21:33N 40°39' W 074°05'5 4.6
2017-Jan-12 20:33N 40°41' W 074°00'1 1.4
2017-Jan-12 19:33N 40°40' W 074°00'0 0.0
2017-Jan-12 18:33N 40°40' W 074°00'0 0.0
2017-Jan-12 17:33N 40°40' W 074°00'0 0.0
2017-Jan-12 16:33N 40°40' W 074°00'0 0.0
2017-Jan-12 15:33N 40°40' W 074°00'0 0.0
2017-Jan-12 14:33N 40°40' W 074°00'0 0.0
2017-Jan-12 13:33N 40°40' W 074°00'0 0.0
2017-Jan-12 12:33N 40°40' W 074°00'0 0.0
2017-Jan-12 11:33N 40°40' W 074°00'0 0.0
2017-Jan-12 10:33N 40°40' W 074°00'0 0.0
2017-Jan-12 09:33N 40°40' W 074°00'0 0.0
2017-Jan-12 08:33N 40°40' W 074°00'1 1.3
2017-Jan-12 07:33N 40°39' W 074°02'5 5.3
2017-Jan-12 06:33N 40°40' W 074°09'0 0.3
2017-Jan-12 05:33N 40°40' W 074°09'3 2.7
2017-Jan-12 04:33N 40°39' W 074°05'4 3.6
2017-Jan-12 03:33N 40°40' W 074°01'2 1.7
2017-Jan-12 02:33N 40°40' W 074°03'3 2.8
2017-Jan-12 01:33N 40°38' W 074°04'3 2.8
2017-Jan-12 00:33N 40°40' W 074°05'0 0.0
2017-Jan-11 23:33N 40°40' W 074°05'0 0.0
2017-Jan-11 22:33N 40°40' W 074°05'5 5.4
2017-Jan-11 21:33N 40°38' W 074°12'8 3.9
2017-Jan-11 19:33N 40°40' W 074°02'3 2.6
2017-Jan-11 18:33N 40°37' W 074°04'2 2.3
2017-Jan-11 17:33N 40°40' W 074°04'1 1.1
2017-Jan-11 16:33N 40°40' W 074°05'0 0.0
2017-Jan-11 15:33N 40°40' W 074°05'0 0.0
2017-Jan-11 14:33N 40°40' W 074°05'0 0.0
2017-Jan-11 13:33N 40°40' W 074°05'0 0.0
2017-Jan-11 12:33N 40°40' W 074°05'2 2.4
2017-Jan-11 11:33N 40°38' W 074°04'2 2.2
2017-Jan-11 10:33N 40°39' W 074°06'0 0.0
2017-Jan-11 09:33N 40°39' W 074°06'5 4.7
2017-Jan-11 08:33N 40°40' W 074°00'0 0.0
2017-Jan-11 07:33N 40°40' W 074°00'0 0.0
2017-Jan-11 06:33N 40°40' W 074°00'0 0.0
2017-Jan-11 05:33N 40°40' W 074°00'0 0.2
2017-Jan-11 04:33N 40°40' W 074°00'4 3.8
2017-Jan-11 03:33N 40°40' W 074°05'0 0.0
2017-Jan-11 02:33N 40°40' W 074°05'1 0.9
2017-Jan-11 01:33N 40°39' W 074°05'1 1.1
2017-Jan-11 00:33N 40°39' W 074°07'2 2.1
2017-Jan-10 23:32N 40°39' W 074°09'4 3.9
2017-Jan-10 22:33N 40°39' W 074°04'3 3.2
2017-Jan-10 21:33N 40°40' W 074°00'0 0.0
2017-Jan-10 20:33N 40°40' W 074°00'0 0.0
2017-Jan-10 19:33N 40°40' W 074°00'0 0.0
2017-Jan-10 18:33N 40°40' W 074°00'0 0.0
2017-Jan-10 17:33N 40°40' W 074°00'0 0.0
2017-Jan-10 16:33N 40°40' W 074°00'0 0.0
2017-Jan-10 15:33N 40°40' W 074°00'0 0.0
2017-Jan-10 14:33N 40°40' W 074°00'0 0.0
2017-Jan-10 13:33N 40°40' W 074°00'0 0.0
2017-Jan-10 12:33N 40°40' W 074°00'0 0.0
2017-Jan-10 11:33N 40°40' W 074°00'1 0.8
2017-Jan-10 10:33N 40°40' W 074°01'2 2.1
2017-Jan-10 09:33N 40°40' W 074°04'3 3.3
2017-Jan-10 08:33N 40°40' W 074°08'1 1.2
2017-Jan-10 07:33N 40°41' W 074°09'0 0.0
2017-Jan-10 06:33N 40°41' W 074°09'0 0.0
2017-Jan-10 05:33N 40°41' W 074°09'0 0.0
2017-Jan-10 04:33N 40°41' W 074°09'0 0.0
2017-Jan-10 03:33N 40°41' W 074°09'0 0.0
2017-Jan-10 02:33N 40°41' W 074°09'0 0.0
2017-Jan-10 01:33N 40°41' W 074°09'0 0.0
2017-Jan-10 00:33N 40°41' W 074°09'0 0.0
2017-Jan-09 23:33N 40°41' W 074°09'0 0.3
2017-Jan-09 22:33N 40°41' W 074°09'0 0.5
2017-Jan-09 21:33N 40°41' W 074°10'0 0.0
2017-Jan-09 20:33N 40°41' W 074°10'0 0.0
2017-Jan-09 19:33N 40°41' W 074°10'0 0.0
2017-Jan-09 18:33N 40°41' W 074°10'0 0.0
2017-Jan-09 17:33N 40°41' W 074°10'3 2.8
2017-Jan-09 16:33N 40°39' W 074°08'2 2.3
2017-Jan-09 15:33N 40°39' W 074°05'1 0.9
2017-Jan-09 14:33N 40°40' W 074°05'0 0.0
2017-Jan-09 13:33N 40°40' W 074°05'0 0.0
2017-Jan-09 12:33N 40°40' W 074°05'0 0.0
2017-Jan-09 11:33N 40°40' W 074°05'0 0.0
2017-Jan-09 10:33N 40°40' W 074°05'0 0.0
2017-Jan-09 09:33N 40°40' W 074°05'0 0.0
2017-Jan-09 08:33N 40°40' W 074°05'0 0.0
2017-Jan-09 07:33N 40°40' W 074°05'0 0.0
2017-Jan-09 06:33N 40°40' W 074°05'1 1.0
2017-Jan-09 05:33N 40°39' W 074°05'2 1.9
2017-Jan-09 04:33N 40°40' W 074°03'2 2.1
2017-Jan-09 03:33N 40°40' W 074°00'0 0.1
2017-Jan-09 02:33N 40°40' W 074°00'0 0.0
2017-Jan-09 01:33N 40°40' W 074°00'0 0.0
2017-Jan-09 00:33N 40°40' W 074°00'0 0.3
2017-Jan-08 23:33N 40°40' W 074°01'2 1.7
2017-Jan-08 22:33N 40°40' W 074°03'  
Track history (hours):
 
Tides and Currents Weather Stations Pressure Air Temp Water Temp Dewpoint Dewpoint Depression Visibility Wind Speed Wind Dir Waves Ship Positions

Emerald Coast

Owner: Dann Marine Towing, LC, Chesapeake City, MD. More information available from US FCC via Universal Licensing System and Coast Guard Vessel Documentation Center.

Last reported at 2017-Jan-18 21:33 UTC. Time now 2017-Jan-18 22:13 UTC.
Position N 40°40' W 074°05'.

Length 28 m; draft 3 m.

Type: Towing. MMSI: 367097920.

Date/timePositionNaut miles runAvg speedWind from/ knotsBaromVisibWave heightAir tempDewpointWater temp
2017-Jan-18 21:33N 40°40' W 074°05'0 0.0
2017-Jan-18 20:33N 40°40' W 074°05'4 3.7
2017-Jan-18 19:34N 40°40' W 074°00'1 1.4
2017-Jan-18 18:34N 40°40' W 074°02'1 1.3
2017-Jan-18 17:33N 40°40' W 074°00'0 0.3
2017-Jan-18 16:33N 40°40' W 074°00'0 0.0
2017-Jan-18 15:34N 40°40' W 074°00'3 3.2
2017-Jan-18 14:33N 40°40' W 074°05'0 0.1
2017-Jan-18 13:33N 40°40' W 074°05'0 0.0
2017-Jan-18 12:33N 40°40' W 074°05'0 0.0
2017-Jan-18 11:33N 40°40' W 074°05'0 0.5
2017-Jan-18 10:33N 40°40' W 074°04'0 0.0
2017-Jan-18 09:33N 40°40' W 074°04'0 0.0
2017-Jan-18 08:34N 40°40' W 074°04'0 0.0
2017-Jan-18 07:34N 40°40' W 074°04'0 0.0
2017-Jan-18 06:34N 40°40' W 074°04'0 0.0
2017-Jan-18 05:33N 40°40' W 074°04'2 2.4
2017-Jan-18 04:33N 40°40' W 074°01'1 0.7
2017-Jan-18 03:33N 40°40' W 074°00'0 0.0
2017-Jan-18 02:33N 40°40' W 074°00'0 0.0
2017-Jan-18 01:34N 40°40' W 074°00'0 0.0
2017-Jan-18 00:33N 40°40' W 074°00'4 4.1
2017-Jan-17 23:33N 40°39' W 074°05'1 0.9
2017-Jan-17 22:33N 40°39' W 074°07'3 2.5
2017-Jan-17 21:33N 40°41' W 074°09'6 5.6
2017-Jan-17 20:33N 40°39' W 074°02'1 1.4
2017-Jan-17 19:33N 40°40' W 074°00'0 0.0
2017-Jan-17 18:33N 40°40' W 074°00'3 2.6
2017-Jan-17 17:33N 40°39' W 074°03'2 1.8
2017-Jan-17 16:33N 40°39' W 074°06'2 1.9
2017-Jan-17 15:34N 40°38' W 074°04'0 0.1
2017-Jan-17 14:33N 40°38' W 074°04'1 0.5
2017-Jan-17 13:33N 40°37' W 074°03'0 0.2
2017-Jan-17 12:33N 40°37' W 074°03'0 0.0
2017-Jan-17 11:33N 40°37' W 074°03'0 0.0
2017-Jan-17 10:33N 40°37' W 074°03'0 0.0
2017-Jan-17 09:33N 40°37' W 074°03'0 0.0
2017-Jan-17 08:33N 40°37' W 074°03'0 0.0
2017-Jan-17 07:33N 40°37' W 074°03'0 0.3
2017-Jan-17 06:33N 40°37' W 074°03'0 0.1
2017-Jan-17 05:33N 40°37' W 074°03'2 2.2
2017-Jan-17 04:34N 40°39' W 074°05'4 4.0
2017-Jan-17 03:34N 40°40' W 074°00'0 0.1
2017-Jan-17 02:33N 40°40' W 074°00'2 1.9
2017-Jan-17 01:33N 40°40' W 074°03'5 4.7
2017-Jan-17 00:33N 40°38' W 074°09'2 1.7
2017-Jan-16 23:33N 40°40' W 074°08'0 0.0
2017-Jan-16 22:33N 40°40' W 074°08'0 0.0
2017-Jan-16 21:33N 40°40' W 074°08'0 0.0
2017-Jan-16 20:33N 40°40' W 074°08'0 0.0
2017-Jan-16 19:33N 40°40' W 074°08'0 0.3
2017-Jan-16 18:34N 40°40' W 074°09'2 2.2
2017-Jan-16 17:33N 40°39' W 074°06'0 0.2
2017-Jan-16 16:33N 40°39' W 074°06'0 0.0
2017-Jan-16 15:33N 40°39' W 074°06'0 0.0
2017-Jan-16 14:33N 40°39' W 074°06'0 0.0
2017-Jan-16 13:33N 40°39' W 074°06'0 0.0
2017-Jan-16 12:33N 40°39' W 074°06'0 0.0
2017-Jan-16 11:33N 40°39' W 074°06'0 0.0
2017-Jan-16 10:33N 40°39' W 074°06'0 0.0
2017-Jan-16 09:33N 40°39' W 074°06'0 0.0
2017-Jan-16 08:33N 40°39' W 074°06'0 0.0
2017-Jan-16 07:33N 40°39' W 074°06'0 0.0
2017-Jan-16 06:33N 40°39' W 074°06'1 1.1
2017-Jan-16 05:33N 40°39' W 074°05'3 3.2
2017-Jan-16 04:33N 40°41' W 074°09'1 0.8
2017-Jan-16 03:32N 40°41' W 074°09'0 0.0
2017-Jan-16 02:33N 40°41' W 074°09'0 0.3
2017-Jan-16 01:33N 40°41' W 074°09'0 0.0
2017-Jan-16 00:33N 40°41' W 074°09'0 0.0
2017-Jan-15 23:33N 40°41' W 074°09'0 0.0
2017-Jan-15 22:33N 40°41' W 074°09'0 0.0
2017-Jan-15 21:33N 40°41' W 074°09'0 0.0
2017-Jan-15 20:33N 40°41' W 074°09'0 0.0
2017-Jan-15 19:33N 40°41' W 074°09'0 0.0
2017-Jan-15 18:34N 40°41' W 074°09'0 0.0
2017-Jan-15 17:33N 40°41' W 074°09'0 0.0
2017-Jan-15 16:33N 40°41' W 074°09'0 0.0
2017-Jan-15 15:33N 40°41' W 074°09'0 0.0
2017-Jan-15 14:33N 40°41' W 074°09'0 0.3
2017-Jan-15 13:34N 40°41' W 074°10'0 0.0
2017-Jan-15 12:33N 40°41' W 074°10'0 0.0
2017-Jan-15 11:33N 40°41' W 074°10'0 0.0
2017-Jan-15 10:33N 40°41' W 074°10'0 0.0
2017-Jan-15 09:33N 40°41' W 074°10'0 0.0
2017-Jan-15 08:33N 40°41' W 074°10'0 0.0
2017-Jan-15 07:33N 40°41' W 074°10'0 0.0
2017-Jan-15 06:33N 40°41' W 074°10'0 0.0
2017-Jan-15 05:33N 40°41' W 074°10'0 0.0
2017-Jan-15 04:33N 40°41' W 074°10'0 0.0
2017-Jan-15 03:33N 40°41' W 074°10'0 0.0
2017-Jan-15 02:33N 40°41' W 074°10'0 0.0
2017-Jan-15 01:34N 40°41' W 074°10'0 0.0
2017-Jan-15 00:33N 40°41' W 074°10'1 0.8
2017-Jan-14 23:33N 40°41' W 074°09'3 2.8
2017-Jan-14 22:33N 40°39' W 074°06'5 4.6
2017-Jan-14 21:33N 40°40' W 074°00'0 0.0
2017-Jan-14 20:33N 40°40' W 074°00'0 0.0
2017-Jan-14 19:33N 40°40' W 074°00'0 0.2
2017-Jan-14 18:33N 40°40' W 074°00'3 2.9
2017-Jan-14 17:33N 40°40' W 074°04'0 0.0
2017-Jan-14 16:33N 40°40' W 074°04'0 0.0
2017-Jan-14 15:33N 40°40' W 074°04'0 0.0
2017-Jan-14 14:33N 40°40' W 074°04'0 0.0
2017-Jan-14 13:33N 40°40' W 074°04'0 0.0
2017-Jan-14 12:33N 40°40' W 074°04'0 0.1
2017-Jan-14 11:33N 40°40' W 074°04'0 0.0
2017-Jan-14 10:33N 40°40' W 074°04'0 0.0
2017-Jan-14 09:33N 40°40' W 074°04'0 0.0
2017-Jan-14 08:33N 40°40' W 074°04'3 2.8
2017-Jan-14 07:33N 40°37' W 074°04'2 1.6
2017-Jan-14 06:33N 40°39' W 074°02'2 1.9
2017-Jan-14 05:33N 40°40' W 074°00'0 0.2
2017-Jan-14 04:33N 40°40' W 074°01'0 0.3
2017-Jan-14 03:33N 40°40' W 074°00'4 1.0
2017-Jan-13 23:33N 40°40' W 074°05'0 0.0
2017-Jan-13 22:33N 40°40' W 074°05'0 0.0
2017-Jan-13 21:33N 40°40' W 074°05'1 1.2
2017-Jan-13 20:33N 40°39' W 074°05'1 1.2
2017-Jan-13 19:33N 40°40' W 074°04'1 0.6
2017-Jan-13 18:33N 40°40' W 074°05'0 0.0
2017-Jan-13 17:33N 40°40' W 074°05'0 0.0
2017-Jan-13 16:33N 40°40' W 074°05'0 0.0
2017-Jan-13 15:33N 40°40' W 074°05'0 0.0
2017-Jan-13 14:33N 40°40' W 074°05'4 3.6
2017-Jan-13 13:33N 40°40' W 074°00'0 0.0
2017-Jan-13 12:33N 40°40' W 074°00'0 0.0
2017-Jan-13 11:33N 40°40' W 074°00'3 3.1
2017-Jan-13 10:33N 40°39' W 074°04'1 0.9
2017-Jan-13 09:33N 40°40' W 074°03'3 3.1
2017-Jan-13 08:33N 40°41' W 074°00'4 3.6
2017-Jan-13 07:33N 40°40' W 074°05'0 0.4
2017-Jan-13 06:33N 40°40' W 074°05'0 0.0
2017-Jan-13 05:33N 40°40' W 074°05'0 0.0
2017-Jan-13 04:33N 40°40' W 074°05'0 0.0
2017-Jan-13 03:33N 40°40' W 074°05'0 0.0
2017-Jan-13 02:33N 40°40' W 074°05'0 0.0
2017-Jan-13 01:33N 40°40' W 074°05'0 0.0
2017-Jan-13 00:33N 40°40' W 074°05'0 0.0
2017-Jan-12 23:33N 40°40' W 074°05'0 0.0
2017-Jan-12 22:33N 40°40' W 074°05'1 1.2
2017-Jan-12 21:33N 40°39' W 074°05'5 4.6
2017-Jan-12 20:33N 40°41' W 074°00'1 1.4
2017-Jan-12 19:33N 40°40' W 074°00'0 0.0
2017-Jan-12 18:33N 40°40' W 074°00'0 0.0
2017-Jan-12 17:33N 40°40' W 074°00'0 0.0
2017-Jan-12 16:33N 40°40' W 074°00'0 0.0
2017-Jan-12 15:33N 40°40' W 074°00'0 0.0
2017-Jan-12 14:33N 40°40' W 074°00'0 0.0
2017-Jan-12 13:33N 40°40' W 074°00'0 0.0
2017-Jan-12 12:33N 40°40' W 074°00'0 0.0
2017-Jan-12 11:33N 40°40' W 074°00'0 0.0
2017-Jan-12 10:33N 40°40' W 074°00'0 0.0
2017-Jan-12 09:33N 40°40' W 074°00'0 0.0
2017-Jan-12 08:33N 40°40' W 074°00'1 1.3
2017-Jan-12 07:33N 40°39' W 074°02'5 5.3
2017-Jan-12 06:33N 40°40' W 074°09'0 0.3
2017-Jan-12 05:33N 40°40' W 074°09'3 2.7
2017-Jan-12 04:33N 40°39' W 074°05'4 3.6
2017-Jan-12 03:33N 40°40' W 074°01'2 1.7
2017-Jan-12 02:33N 40°40' W 074°03'3 2.8
2017-Jan-12 01:33N 40°38' W 074°04'3 2.8
2017-Jan-12 00:33N 40°40' W 074°05'0 0.0
2017-Jan-11 23:33N 40°40' W 074°05'0 0.0
2017-Jan-11 22:33N 40°40' W 074°05'5 5.4
2017-Jan-11 21:33N 40°38' W 074°12'8 3.9
2017-Jan-11 19:33N 40°40' W 074°02'3 2.6
2017-Jan-11 18:33N 40°37' W 074°04'2 2.3
2017-Jan-11 17:33N 40°40' W 074°04'1 1.1
2017-Jan-11 16:33N 40°40' W 074°05'0 0.0
2017-Jan-11 15:33N 40°40' W 074°05'0 0.0
2017-Jan-11 14:33N 40°40' W 074°05'0 0.0
2017-Jan-11 13:33N 40°40' W 074°05'0 0.0
2017-Jan-11 12:33N 40°40' W 074°05'2 2.4
2017-Jan-11 11:33N 40°38' W 074°04'2 2.2
2017-Jan-11 10:33N 40°39' W 074°06'0 0.0
2017-Jan-11 09:33N 40°39' W 074°06'5 4.7
2017-Jan-11 08:33N 40°40' W 074°00'0 0.0
2017-Jan-11 07:33N 40°40' W 074°00'0 0.0
2017-Jan-11 06:33N 40°40' W 074°00'0 0.0
2017-Jan-11 05:33N 40°40' W 074°00'0 0.2
2017-Jan-11 04:33N 40°40' W 074°00'4 3.8
2017-Jan-11 03:33N 40°40' W 074°05'0 0.0
2017-Jan-11 02:33N 40°40' W 074°05'1 0.9
2017-Jan-11 01:33N 40°39' W 074°05'1 1.1
2017-Jan-11 00:33N 40°39' W 074°07'2 2.1
2017-Jan-10 23:32N 40°39' W 074°09'4 3.9
2017-Jan-10 22:33N 40°39' W 074°04'3 3.2
2017-Jan-10 21:33N 40°40' W 074°00'0 0.0
2017-Jan-10 20:33N 40°40' W 074°00'0 0.0
2017-Jan-10 19:33N 40°40' W 074°00'0 0.0
2017-Jan-10 18:33N 40°40' W 074°00'0 0.0
2017-Jan-10 17:33N 40°40' W 074°00'0 0.0
2017-Jan-10 16:33N 40°40' W 074°00'0 0.0
2017-Jan-10 15:33N 40°40' W 074°00'0 0.0
2017-Jan-10 14:33N 40°40' W 074°00'0 0.0
2017-Jan-10 13:33N 40°40' W 074°00'0 0.0
2017-Jan-10 12:33N 40°40' W 074°00'0 0.0
2017-Jan-10 11:33N 40°40' W 074°00'1 0.8
2017-Jan-10 10:33N 40°40' W 074°01'2 2.1
2017-Jan-10 09:33N 40°40' W 074°04'3 3.3
2017-Jan-10 08:33N 40°40' W 074°08'1 1.2
2017-Jan-10 07:33N 40°41' W 074°09'0 0.0
2017-Jan-10 06:33N 40°41' W 074°09'0 0.0
2017-Jan-10 05:33N 40°41' W 074°09'0 0.0
2017-Jan-10 04:33N 40°41' W 074°09'0 0.0
2017-Jan-10 03:33N 40°41' W 074°09'0 0.0
2017-Jan-10 02:33N 40°41' W 074°09'0 0.0
2017-Jan-10 01:33N 40°41' W 074°09'0 0.0
2017-Jan-10 00:33N 40°41' W 074°09'0 0.0
2017-Jan-09 23:33N 40°41' W 074°09'0 0.3
2017-Jan-09 22:33N 40°41' W 074°09'0 0.5
2017-Jan-09 21:33N 40°41' W 074°10'0 0.0
2017-Jan-09 20:33N 40°41' W 074°10'0 0.0
2017-Jan-09 19:33N 40°41' W 074°10'0 0.0
2017-Jan-09 18:33N 40°41' W 074°10'0 0.0
2017-Jan-09 17:33N 40°41' W 074°10'3 2.8
2017-Jan-09 16:33N 40°39' W 074°08'2 2.3
2017-Jan-09 15:33N 40°39' W 074°05'1 0.9
2017-Jan-09 14:33N 40°40' W 074°05'0 0.0
2017-Jan-09 13:33N 40°40' W 074°05'0 0.0
2017-Jan-09 12:33N 40°40' W 074°05'0 0.0
2017-Jan-09 11:33N 40°40' W 074°05'0 0.0
2017-Jan-09 10:33N 40°40' W 074°05'0 0.0
2017-Jan-09 09:33N 40°40' W 074°05'0 0.0
2017-Jan-09 08:33N 40°40' W 074°05'0 0.0
2017-Jan-09 07:33N 40°40' W 074°05'0 0.0
2017-Jan-09 06:33N 40°40' W 074°05'1 1.0
2017-Jan-09 05:33N 40°39' W 074°05'2 1.9
2017-Jan-09 04:33N 40°40' W 074°03'2 2.1
2017-Jan-09 03:33N 40°40' W 074°00'0 0.1
2017-Jan-09 02:33N 40°40' W 074°00'0 0.0
2017-Jan-09 01:33N 40°40' W 074°00'0 0.0
2017-Jan-09 00:33N 40°40' W 074°00'0 0.3
2017-Jan-08 23:33N 40°40' W 074°01'2 1.7
2017-Jan-08 22:33N 40°40' W 074°03'  

Dump ship's entire track history